Time;durP1;ratioP1;P1;durP2;ratioP2;P2;SDS_P1;SDS_P2;PMS_P1;PMS_P2;Temp;Humidity;BMP_temperature;BMP_pressure;BME280_temperature;BME280_humidity;BME280_pressure;Samples;Min_cycle;Max_cycle;Signal;HPM_P1;HPM_P2
2022/03/23 00:02:16;;;;;;;17.98;9.88;;;;;;;7.52;50.65;101260.00;4926133;29;20574;-81
2022/03/23 00:04:41;;;;;;;21.38;10.73;;;;;;;7.46;51.04;101253.53;4925777;29;20052;-81
2022/03/23 00:07:06;;;;;;;19.42;10.95;;;;;;;7.41;51.52;101253.28;4926051;29;20027;-81
2022/03/23 00:09:32;;;;;;;38.53;13.18;;;;;;;7.58;51.04;101262.72;4926177;29;20049;-81
2022/03/23 00:11:57;;;;;;;17.30;9.65;;;;;;;7.59;50.79;101253.53;4925826;29;20059;-80
2022/03/23 00:14:23;;;;;;;24.02;11.18;;;;;;;7.43;50.48;101265.63;4926312;29;20319;-83
2022/03/23 00:16:50;;;;;;;27.33;12.63;;;;;;;7.56;51.16;101262.09;4924861;29;20106;-81
2022/03/23 00:19:17;;;;;;;21.58;11.85;;;;;;;7.50;50.12;101257.50;4925896;29;20305;-81
2022/03/23 00:21:42;;;;;;;22.48;10.60;;;;;;;7.44;50.87;101269.19;4938965;29;20034;-81
2022/03/23 00:24:07;;;;;;;20.27;12.30;;;;;;;7.29;50.26;101256.63;4931677;29;20561;-81
2022/03/23 00:26:33;;;;;;;21.17;12.50;;;;;;;7.23;51.28;101254.75;4926298;29;20366;-80
2022/03/23 00:28:58;;;;;;;24.80;12.55;;;;;;;7.20;51.77;101260.59;4925983;29;20467;-81
2022/03/23 00:31:23;;;;;;;18.45;10.23;;;;;;;7.28;50.92;101263.09;4925446;29;20043;-80
2022/03/23 00:33:50;;;;;;;26.42;14.48;;;;;;;7.26;50.75;101258.94;4925650;29;20431;-81
2022/03/23 00:36:16;;;;;;;23.98;11.80;;;;;;;7.11;52.11;101255.34;4926199;29;20053;-81
2022/03/23 00:38:42;;;;;;;21.63;10.52;;;;;;;6.99;51.83;101259.69;4924926;29;20126;-80
2022/03/23 00:41:08;;;;;;;24.92;11.27;;;;;;;7.08;51.62;101258.44;4926021;29;20726;-81
2022/03/23 00:43:48;;;;;;;19.27;10.05;;;;;;;7.05;52.08;101258.88;4924914;29;20047;-81
2022/03/23 00:46:15;;;;;;;16.92;9.68;;;;;;;7.06;51.21;101251.59;4925117;29;20554;-80
2022/03/23 00:48:40;;;;;;;16.35;9.98;;;;;;;6.95;52.62;101256.56;4925525;29;20510;-80
2022/03/23 00:51:05;;;;;;;23.00;12.02;;;;;;;7.03;51.42;101254.69;4925012;29;20032;-80
2022/03/23 00:53:31;;;;;;;17.37;9.60;;;;;;;6.98;51.29;101256.13;4924994;29;20040;-80
2022/03/23 00:55:57;;;;;;;18.67;9.65;;;;;;;7.09;51.02;101252.00;4925497;29;20258;-81
2022/03/23 00:58:22;;;;;;;18.70;9.55;;;;;;;6.94;50.83;101251.31;4925499;29;21009;-80
2022/03/23 01:00:48;;;;;;;17.88;9.27;;;;;;;6.91;51.10;101254.44;4924903;29;20383;-81
2022/03/23 01:03:14;;;;;;;16.45;9.48;;;;;;;6.81;51.87;101255.69;4924823;29;20040;-81
2022/03/23 01:05:39;;;;;;;18.75;8.30;;;;;;;6.87;51.84;101257.56;4924870;29;20606;-81
2022/03/23 01:08:05;;;;;;;21.27;11.30;;;;;;;6.95;50.74;101258.44;4925338;29;20031;-81
2022/03/23 01:10:32;;;;;;;21.10;10.07;;;;;;;6.88;52.32;101252.97;4920025;29;20036;-79
2022/03/23 01:12:57;;;;;;;16.25;7.68;;;;;;;6.75;53.07;101249.16;4921704;29;20106;-81
2022/03/23 01:15:22;;;;;;;17.13;8.10;;;;;;;6.69;53.19;101254.59;4924853;29;20464;-80
2022/03/23 01:17:49;;;;;;;14.80;7.93;;;;;;;6.65;51.78;101248.72;4935136;28;20400;-80
2022/03/23 01:20:16;;;;;;;14.90;7.13;;;;;;;6.82;51.99;101253.78;4940765;29;20040;-81
2022/03/23 01:22:44;;;;;;;19.00;9.48;;;;;;;6.79;52.28;101244.19;4923733;29;20035;-80
2022/03/23 01:25:10;;;;;;;17.45;9.27;;;;;;;6.81;52.78;101252.13;4923747;29;20570;-81
2022/03/23 01:27:36;;;;;;;28.23;10.20;;;;;;;6.88;51.89;101247.56;4924236;29;20031;-80
2022/03/23 01:30:05;;;;;;;19.77;9.80;;;;;;;6.79;52.74;101246.91;4924021;29;20031;-80
2022/03/23 01:32:30;;;;;;;15.93;8.63;;;;;;;6.74;52.25;101249.38;4923943;29;20488;-81
2022/03/23 01:34:56;;;;;;;13.85;7.50;;;;;;;6.97;50.70;101245.50;4923568;29;20374;-80
2022/03/23 01:37:21;;;;;;;14.88;8.38;;;;;;;6.93;51.14;101247.78;4924633;29;20698;-81
2022/03/23 01:39:46;;;;;;;20.75;11.70;;;;;;;7.14;50.22;101245.13;4923989;29;20062;-81
2022/03/23 01:42:12;;;;;;;22.65;10.50;;;;;;;7.33;49.28;101249.75;4923711;29;20036;-80
2022/03/23 01:44:37;;;;;;;20.67;9.85;;;;;;;7.35;50.10;101246.81;4923999;29;20078;-80
2022/03/23 01:47:07;;;;;;;18.25;9.35;;;;;;;7.32;51.29;101245.34;4923752;29;20046;-80
2022/03/23 01:52:21;;;;;;;17.20;8.95;;;;;;;7.30;51.78;101242.00;4920517;29;20094;-81
2022/03/23 01:54:47;;;;;;;16.92;9.77;;;;;;;7.12;52.43;101243.44;4924051;29;20042;-80
2022/03/23 01:57:14;;;;;;;19.15;8.43;;;;;;;7.14;51.66;101239.72;4924426;29;20031;-80
2022/03/23 01:59:40;;;;;;;20.27;9.70;;;;;;;7.15;52.09;101241.38;4923538;29;20518;-80
2022/03/23 02:02:06;;;;;;;19.77;9.35;;;;;;;7.05;50.76;101231.75;4929877;29;20035;-80
2022/03/23 02:04:32;;;;;;;21.25;10.57;;;;;;;7.02;51.34;101243.00;4942854;29;20031;-80
2022/03/23 02:06:57;;;;;;;18.85;9.93;;;;;;;6.83;52.47;101229.19;4943244;29;20043;-81
2022/03/23 02:09:25;;;;;;;17.50;9.77;;;;;;;6.89;52.54;101231.06;4943099;29;20035;-80
2022/03/23 02:11:52;;;;;;;20.52;9.98;;;;;;;6.82;52.70;101226.66;4927596;29;20040;-80
2022/03/23 02:14:18;;;;;;;21.70;10.48;;;;;;;6.84;52.46;101225.44;4917245;29;20260;-80
2022/03/23 02:16:45;;;;;;;21.05;10.57;;;;;;;6.84;51.65;101233.56;4923097;29;20032;-80
2022/03/23 02:19:11;;;;;;;18.98;9.68;;;;;;;6.83;51.30;101228.34;4923496;29;20940;-79
2022/03/23 02:21:37;;;;;;;21.58;9.00;;;;;;;6.75;52.60;101227.47;4922831;29;20043;-80
2022/03/23 02:24:17;;;;;;;20.08;9.10;;;;;;;6.80;52.46;101224.16;4933173;29;20664;-81
2022/03/23 02:26:43;;;;;;;19.63;10.32;;;;;;;6.77;52.39;101230.00;4942717;29;20023;-80
2022/03/23 02:29:09;;;;;;;17.92;9.35;;;;;;;6.67;51.62;101227.69;4942872;29;20046;-81
2022/03/23 02:31:35;;;;;;;20.00;9.68;;;;;;;6.80;52.36;101224.16;4928566;29;20031;-81
2022/03/23 02:34:01;;;;;;;19.75;10.40;;;;;;;6.84;53.09;101228.16;4923569;29;20039;-80
2022/03/23 02:36:27;;;;;;;20.42;10.85;;;;;;;6.82;52.09;101222.09;4922347;29;20475;-81
2022/03/23 02:38:52;;;;;;;18.13;10.38;;;;;;;6.60;53.61;101233.06;4922619;29;20038;-80
2022/03/23 02:41:18;;;;;;;18.08;10.30;;;;;;;6.54;54.12;101223.88;4921960;29;20036;-80
2022/03/23 02:43:44;;;;;;;16.52;11.15;;;;;;;6.42;54.49;101220.91;4922848;29;20087;-80
2022/03/23 02:46:13;;;;;;;18.83;10.27;;;;;;;6.49;53.13;101226.34;4923165;29;20434;-80
2022/03/23 02:48:39;;;;;;;15.38;9.30;;;;;;;6.59;53.84;101211.59;4922846;29;20031;-81
2022/03/23 02:51:04;;;;;;;15.75;8.55;;;;;;;6.51;54.16;101220.72;4923057;29;20655;-81
2022/03/23 03:02:19;;;;;;;20.73;9.48;;;;;;;6.39;53.80;101223.16;4928571;29;20046;-79
2022/03/23 03:04:45;;;;;;;19.75;8.05;;;;;;;6.26;54.45;101213.94;4942398;29;20027;-80
2022/03/23 03:07:10;;;;;;;15.45;9.13;;;;;;;6.35;54.35;101217.31;4942229;29;20550;-81
2022/03/23 03:09:35;;;;;;;19.48;9.35;;;;;;;6.40;54.57;101222.97;4942037;29;20034;-81
2022/03/23 03:12:01;;;;;;;17.40;8.55;;;;;;;6.35;53.95;101228.16;4925383;29;20040;-80
2022/03/23 03:14:27;;;;;;;18.63;9.52;;;;;;;6.31;54.28;101218.75;4920729;29;20023;-81
2022/03/23 03:16:52;;;;;;;13.77;7.95;;;;;;;6.30;54.27;101219.81;4924456;29;20035;-81
2022/03/23 03:19:19;;;;;;;17.02;9.38;;;;;;;6.26;54.27;101223.94;4942185;29;20505;-81
2022/03/23 03:21:45;;;;;;;13.13;7.85;;;;;;;6.34;54.24;101226.50;4909625;29;20027;-80
2022/03/23 03:24:10;;;;;;;17.17;8.25;;;;;;;6.34;54.47;101231.06;4922608;29;20079;-80
2022/03/23 03:26:36;;;;;;;18.23;9.27;;;;;;;6.43;54.61;101224.44;4922961;29;20130;-80
2022/03/23 03:29:04;;;;;;;27.48;8.68;;;;;;;6.53;54.24;101227.59;4923003;29;20258;-80
2022/03/23 03:31:30;;;;;;;14.48;8.50;;;;;;;6.29;54.96;101234.38;4921508;29;20043;-80
2022/03/23 03:33:55;;;;;;;17.65;9.13;;;;;;;6.53;53.31;101234.91;4925093;29;20096;-79
2022/03/23 03:36:21;;;;;;;18.95;8.75;;;;;;;6.23;55.02;101237.88;4926401;29;20396;-80
2022/03/23 03:38:46;;;;;;;18.13;9.00;;;;;;;6.21;54.47;101232.66;4924998;29;20084;-79
2022/03/23 03:41:12;;;;;;;18.65;8.15;;;;;;;6.32;54.32;101225.00;4926181;29;20039;-79
2022/03/23 03:43:38;;;;;;;27.30;8.23;;;;;;;6.11;55.35;101230.31;4926556;29;20577;-80
2022/03/23 03:46:06;;;;;;;19.52;10.38;;;;;;;6.24;53.69;101229.56;4926373;29;20031;-80
2022/03/23 03:48:31;;;;;;;16.70;8.73;;;;;;;6.40;53.72;101230.25;4926056;29;20059;-80
2022/03/23 03:50:57;;;;;;;15.60;8.30;;;;;;;6.29;53.36;101223.53;4925898;29;20051;-80
2022/03/23 03:53:22;;;;;;;21.97;9.67;;;;;;;6.18;53.69;101236.59;4908840;29;20561;-80
2022/03/23 03:56:00;;;;;;;17.15;7.80;;;;;;;6.27;53.34;101222.91;4926100;29;20266;-80
2022/03/23 03:58:26;;;;;;;20.60;8.65;;;;;;;6.17;53.88;101234.94;4925588;29;20083;-80
2022/03/23 04:00:51;;;;;;;18.03;9.60;;;;;;;6.07;53.03;101239.88;4925756;29;20102;-81
2022/03/23 04:03:17;;;;;;;20.83;8.32;;;;;;;6.03;53.87;101243.97;4925618;29;20749;-80
2022/03/23 04:05:42;;;;;;;17.70;10.23;;;;;;;6.03;54.00;101242.09;4925378;29;20506;-80
2022/03/23 04:08:08;;;;;;;19.75;9.10;;;;;;;5.71;54.45;101239.81;4926229;29;20052;-80
2022/03/23 04:10:35;;;;;;;20.50;9.85;;;;;;;5.53;55.15;101242.97;4925507;29;20031;-80
2022/03/23 04:13:00;;;;;;;16.50;8.57;;;;;;;5.45;54.34;101248.53;4927897;29;20020;-81
2022/03/23 04:15:26;;;;;;;18.83;9.55;;;;;;;5.54;54.37;101249.22;4944996;29;20031;-80
2022/03/23 04:17:53;;;;;;;13.15;8.10;;;;;;;5.55;54.59;101251.72;4945186;29;20027;-79
2022/03/23 04:20:19;;;;;;;18.50;9.80;;;;;;;5.48;55.19;101250.84;4941195;29;20104;-80
2022/03/23 04:22:44;;;;;;;20.02;10.48;;;;;;;5.42;54.40;101252.44;4925755;29;20452;-80
2022/03/23 04:25:12;;;;;;;15.50;7.93;;;;;;;5.29;55.06;101249.63;4925901;29;20661;-80
2022/03/23 04:27:45;;;;;;;18.83;8.82;;;;;;;5.27;55.55;101248.97;4925350;29;20031;-80
2022/03/23 04:30:12;;;;;;;17.23;9.38;;;;;;;5.51;55.91;101260.44;4924880;29;20040;-80
2022/03/23 04:32:38;;;;;;;16.75;7.97;;;;;;;5.70;54.83;101251.66;4925135;29;20449;-80
2022/03/23 04:35:04;;;;;;;18.02;8.73;;;;;;;5.66;54.70;101261.19;4925699;29;20298;-80
2022/03/23 04:37:30;;;;;;;22.52;12.25;;;;;;;5.26;55.65;101267.06;4925584;29;20360;-80
2022/03/23 04:39:55;;;;;;;21.80;12.88;;;;;;;5.29;55.61;101268.56;4924874;29;20031;-79
2022/03/23 04:42:21;;;;;;;30.33;12.32;;;;;;;5.15;56.20;101268.38;4925039;29;20036;-80
2022/03/23 04:44:46;;;;;;;20.30;11.23;;;;;;;5.24;55.38;101272.66;4924034;29;20080;-80
2022/03/23 04:47:11;;;;;;;31.75;13.05;;;;;;;5.16;55.89;101270.09;4924453;29;20641;-80
2022/03/23 04:49:36;;;;;;;22.50;11.37;;;;;;;5.00;56.71;101271.16;4924654;29;20404;-81
2022/03/23 04:52:03;;;;;;;21.25;11.43;;;;;;;4.92;56.72;101274.81;4924815;29;20778;-79
2022/03/23 04:54:28;;;;;;;24.15;12.50;;;;;;;5.11;56.12;101267.09;4925534;29;20020;-79
2022/03/23 04:56:54;;;;;;;19.08;11.27;;;;;;;5.35;55.90;101273.19;4908153;29;20058;-79
2022/03/23 04:59:19;;;;;;;23.17;10.27;;;;;;;5.68;55.46;101264.53;4924733;29;20035;-80
2022/03/23 05:01:45;;;;;;;30.10;12.68;;;;;;;5.88;54.39;101266.56;4925597;28;20956;-80
2022/03/23 05:04:10;;;;;;;18.50;12.18;;;;;;;5.73;55.32;101267.47;4943877;29;20031;-80
2022/03/23 05:06:35;;;;;;;17.38;10.45;;;;;;;5.79;54.84;101263.19;4943959;29;20030;-80
2022/03/23 05:09:01;;;;;;;17.67;10.43;;;;;;;5.90;54.22;101272.63;4943980;29;20027;-79
2022/03/23 05:11:27;;;;;;;21.40;11.43;;;;;;;6.12;53.31;101269.88;4930864;29;20258;-80
2022/03/23 05:14:05;;;;;;;27.35;12.23;;;;;;;6.45;51.55;101264.91;4933916;29;20034;-80
2022/03/23 05:16:31;;;;;;;21.60;12.23;;;;;;;6.62;51.29;101263.53;4943791;29;20537;-80
2022/03/23 05:18:56;;;;;;;22.07;11.73;;;;;;;6.80;51.38;101269.41;4943962;29;20277;-78
2022/03/23 05:21:21;;;;;;;23.13;12.43;;;;;;;6.88;51.31;101272.78;4931991;29;20321;-80
2022/03/23 05:23:47;;;;;;;19.58;11.77;;;;;;;6.72;51.68;101271.28;4924415;29;20290;-80
2022/03/23 05:26:12;;;;;;;24.08;11.45;;;;;;;7.09;49.63;101273.72;4923588;29;20044;-80
2022/03/23 05:28:37;;;;;;;23.48;11.63;;;;;;;7.71;47.64;101280.03;4921391;29;20594;-80
2022/03/23 05:31:03;;;;;;;20.65;12.20;;;;;;;7.87;47.16;101286.13;4923060;29;20032;-81
2022/03/23 05:33:28;;;;;;;26.88;12.93;;;;;;;7.49;48.68;101285.66;4923294;29;20469;-80
2022/03/23 05:35:53;;;;;;;20.20;11.20;;;;;;;6.89;49.93;101282.59;4924415;29;20270;-80
2022/03/23 05:38:19;;;;;;;21.85;11.45;;;;;;;7.21;49.95;101273.94;4924386;29;20312;-80
2022/03/23 05:40:44;;;;;;;19.67;11.20;;;;;;;6.79;51.76;101279.44;4924284;29;20271;-81
2022/03/23 05:43:09;;;;;;;20.37;9.30;;;;;;;6.55;52.22;101273.47;4924071;29;20274;-81
2022/03/23 05:45:35;;;;;;;25.77;13.68;;;;;;;6.27;53.15;101286.03;4924241;29;20766;-79
2022/03/23 05:48:01;;;;;;;20.38;10.30;;;;;;;6.31;54.13;101278.34;4922204;29;20035;-79
2022/03/23 05:50:26;;;;;;;21.55;10.15;;;;;;;6.21;54.31;101289.53;4923594;29;20035;-81
2022/03/23 05:52:51;;;;;;;17.50;10.10;;;;;;;6.15;54.83;101287.63;4924205;29;20024;-80
2022/03/23 05:55:16;;;;;;;21.90;10.97;;;;;;;5.95;55.60;101289.13;4923895;29;20027;-80
2022/03/23 05:57:42;;;;;;;25.27;11.65;;;;;;;6.00;55.23;101285.00;4923182;29;20311;-81
2022/03/23 06:00:09;;;;;;;24.85;11.07;;;;;;;6.06;54.98;101286.94;4905838;29;20092;-81
2022/03/23 06:02:35;;;;;;;20.45;11.57;;;;;;;6.06;56.22;101289.66;4923203;29;20329;-80
2022/03/23 06:05:00;;;;;;;21.42;11.85;;;;;;;6.36;55.08;101281.31;4906884;29;20335;-79
2022/03/23 06:07:25;;;;;;;18.27;11.00;;;;;;;6.28;55.48;101287.72;4923953;29;20028;-80
2022/03/23 06:09:51;;;;;;;26.77;11.80;;;;;;;6.36;54.84;101294.84;4924021;29;20028;-80
2022/03/23 06:12:16;;;;;;;20.75;10.82;;;;;;;6.32;55.12;101290.88;4930199;29;20038;-79
2022/03/23 06:14:44;;;;;;;22.30;11.63;;;;;;;6.38;54.88;101292.78;4925577;29;20530;-78
2022/03/23 06:17:10;;;;;;;23.08;11.80;;;;;;;6.16;56.23;101298.25;4924354;29;20266;-78
2022/03/23 06:19:36;;;;;;;24.45;13.38;;;;;;;6.07;56.48;101296.72;4925406;29;20042;-80
2022/03/23 06:22:02;;;;;;;24.73;11.80;;;;;;;6.08;56.38;101298.41;4908360;29;20403;-80
2022/03/23 06:24:27;;;;;;;24.40;11.50;;;;;;;6.11;56.77;101299.88;4910014;29;20056;-81
2022/03/23 06:26:53;;;;;;;17.20;10.88;;;;;;;6.05;57.54;101302.31;4886652;29;20103;-79
2022/03/23 06:29:18;;;;;;;21.73;11.15;;;;;;;6.06;58.13;101305.91;4903745;29;20032;-80
2022/03/23 06:31:43;;;;;;;18.42;9.65;;;;;;;6.19;57.57;101303.28;4902862;29;20036;-81
2022/03/23 06:34:10;;;;;;;19.27;10.95;;;;;;;6.13;57.55;101306.78;4903881;29;20036;-80
2022/03/23 06:36:36;;;;;;;25.75;12.07;;;;;;;6.28;57.89;101313.97;4904047;29;20069;-80
2022/03/23 06:39:02;;;;;;;25.95;10.77;;;;;;;6.18;59.29;101317.03;4886700;29;20041;-82
2022/03/23 06:41:28;;;;;;;26.48;12.90;;;;;;;6.32;58.56;101322.53;4897996;29;20044;-80
2022/03/23 06:43:53;;;;;;;19.57;10.13;;;;;;;6.61;59.01;101317.94;4904624;29;20036;-81
2022/03/23 06:46:18;;;;;;;21.83;11.30;;;;;;;7.34;53.85;101313.81;4904336;29;20266;-81
2022/03/23 06:48:45;;;;;;;21.13;12.18;;;;;;;7.78;50.01;101320.78;4904300;29;20028;-81
2022/03/23 06:51:11;;;;;;;23.90;12.48;;;;;;;7.97;48.55;101312.84;4903853;29;20455;-80
2022/03/23 06:53:36;;;;;;;19.73;11.45;;;;;;;8.14;48.35;101313.25;4904308;29;20036;-81
2022/03/23 06:56:02;;;;;;;19.88;10.70;;;;;;;8.21;50.78;101310.53;4904776;29;20107;-81
2022/03/23 06:58:27;;;;;;;23.17;12.20;;;;;;;8.04;51.71;101319.13;4904703;29;20036;-81
2022/03/23 07:00:54;;;;;;;18.90;11.60;;;;;;;7.55;54.21;101314.69;4904097;29;20326;-81
2022/03/23 07:03:20;;;;;;;25.92;11.13;;;;;;;7.45;55.23;101317.81;4904024;29;20036;-80
2022/03/23 07:05:45;;;;;;;19.33;11.18;;;;;;;7.53;54.52;101316.78;4904599;29;20040;-81
2022/03/23 07:10:54;;;;;;;20.95;11.63;;;;;;;7.53;55.59;101318.66;4908700;29;20333;-80
2022/03/23 07:13:19;;;;;;;35.00;11.75;;;;;;;7.67;54.49;101314.06;4914797;29;20036;-81
2022/03/23 07:15:46;;;;;;;19.00;11.20;;;;;;;7.66;54.14;101328.72;4927524;29;20103;-81
2022/03/23 07:18:12;;;;;;;21.35;10.25;;;;;;;7.88;54.96;101320.38;4927007;29;20269;-81
2022/03/23 07:20:37;;;;;;;21.20;11.37;;;;;;;8.33;51.48;101316.16;4920755;29;20036;-80
2022/03/23 07:23:02;;;;;;;25.07;13.33;;;;;;;8.48;51.86;101321.38;4909303;29;20322;-81
2022/03/23 07:25:28;;;;;;;19.92;11.40;;;;;;;8.66;50.39;101319.91;4927242;29;20270;-81
2022/03/23 07:27:53;;;;;;;29.25;13.43;;;;;;;8.75;49.17;101322.16;4927051;29;20429;-80
2022/03/23 07:30:20;;;;;;;22.55;13.20;;;;;;;8.75;48.88;101334.91;4926807;29;20033;-83
2022/03/23 07:36:07;;;;;;;23.30;12.93;;;;;;;8.86;49.73;101326.13;4926692;29;20054;-82
2022/03/23 07:38:32;;;;;;;21.55;10.35;;;;;;;8.90;49.27;101322.94;4926812;29;20596;-83
2022/03/23 07:40:58;;;;;;;18.33;10.15;;;;;;;8.95;49.25;101329.41;4926336;29;20410;-82
2022/03/23 07:43:23;;;;;;;22.52;11.35;;;;;;;8.92;49.49;101327.13;4926826;29;20075;-82
2022/03/23 07:45:48;;;;;;;22.48;11.65;;;;;;;8.93;49.40;101327.97;4927100;29;20027;-82
2022/03/23 07:48:15;;;;;;;23.52;11.38;;;;;;;8.98;49.99;101325.44;4926471;29;20032;-83
2022/03/23 07:50:41;;;;;;;23.48;10.65;;;;;;;8.98;49.75;101329.00;4925371;29;20450;-81
2022/03/23 07:53:06;;;;;;;36.10;14.25;;;;;;;9.06;49.44;101318.91;4926756;29;20116;-83
2022/03/23 07:55:31;;;;;;;22.03;12.57;;;;;;;9.06;48.20;101332.50;4927510;29;20628;-85
2022/03/23 07:57:56;;;;;;;23.52;11.75;;;;;;;9.09;49.04;101322.03;4930084;29;20270;-82
2022/03/23 08:00:22;;;;;;;26.30;11.97;;;;;;;9.12;47.57;101328.91;4929768;29;20032;-82
2022/03/23 08:02:47;;;;;;;27.60;13.77;;;;;;;9.17;47.97;101320.13;4929667;29;20617;-81
2022/03/23 08:05:13;;;;;;;23.05;10.73;;;;;;;9.28;47.67;101333.03;4929147;29;20141;-81
2022/03/23 08:10:22;;;;;;;25.17;10.80;;;;;;;9.30;46.43;101340.97;4926169;29;20052;-81
2022/03/23 08:12:48;;;;;;;21.77;11.02;;;;;;;9.39;46.65;101336.97;4927156;29;20031;-80
2022/03/23 08:15:13;;;;;;;25.02;11.60;;;;;;;9.42;47.31;101333.78;4947621;29;20027;-82
2022/03/23 08:17:38;;;;;;;21.47;11.67;;;;;;;9.51;47.47;101339.81;4947654;29;20037;-81
2022/03/23 08:22:52;;;;;;;25.42;13.18;;;;;;;9.59;48.38;101349.59;4927827;29;20058;-80
2022/03/23 08:25:18;;;;;;;24.17;12.55;;;;;;;9.66;48.09;101338.69;4946687;29;20039;-80
2022/03/23 08:27:43;;;;;;;23.80;12.73;;;;;;;9.68;49.09;101347.47;4947332;29;20038;-82
2022/03/23 08:30:26;;;;;;;22.40;12.35;;;;;;;9.77;49.01;101339.84;4945614;29;20840;-81
2022/03/23 08:32:53;;;;;;;27.52;12.85;;;;;;;9.80;49.30;101340.25;4942061;29;20043;-83
2022/03/23 08:35:18;;;;;;;23.52;11.73;;;;;;;9.88;48.95;101343.75;4948187;29;20024;-83
2022/03/23 08:37:44;;;;;;;29.20;13.15;;;;;;;9.92;48.73;101345.00;4949800;29;20106;-84
2022/03/23 08:40:10;;;;;;;25.27;12.82;;;;;;;9.96;48.79;101338.03;4945430;29;20482;-80
2022/03/23 08:42:36;;;;;;;24.17;13.00;;;;;;;10.02;48.77;101336.31;4928688;29;20044;-85
2022/03/23 08:45:02;;;;;;;29.80;14.90;;;;;;;10.03;49.05;101336.09;4929074;29;20035;-81
2022/03/23 08:47:28;;;;;;;24.50;13.75;;;;;;;10.10;48.80;101335.19;4927741;29;20039;-81
2022/03/23 08:49:55;;;;;;;21.30;11.33;;;;;;;10.12;49.21;101342.09;4928537;29;20039;-83
2022/03/23 08:52:21;;;;;;;22.05;12.02;;;;;;;10.01;50.75;101345.53;4930465;29;20305;-84
2022/03/23 08:54:46;;;;;;;23.05;11.63;;;;;;;10.12;49.57;101347.56;4929494;29;20051;-81
2022/03/23 08:57:11;;;;;;;26.03;13.13;;;;;;;10.27;48.84;101343.66;4928835;29;20031;-84
2022/03/23 08:59:37;;;;;;;24.30;12.52;;;;;;;10.30;50.33;101342.34;4928588;29;20422;-85
2022/03/23 09:02:02;;;;;;;28.90;12.98;;;;;;;10.37;49.27;101343.13;4944845;29;20516;-84
2022/03/23 09:04:27;;;;;;;25.67;13.18;;;;;;;10.45;50.41;101342.00;4948133;29;20035;-84
2022/03/23 09:06:52;;;;;;;22.80;12.40;;;;;;;10.47;50.30;101348.06;4910694;29;20044;-83
2022/03/23 09:09:18;;;;;;;22.97;12.17;;;;;;;10.56;49.51;101346.75;4924421;29;21021;-82
2022/03/23 09:11:43;;;;;;;23.83;12.10;;;;;;;10.58;47.83;101343.78;4927334;29;20321;-82
2022/03/23 09:14:09;;;;;;;21.48;11.63;;;;;;;10.65;49.40;101349.19;4927791;29;20280;-80
2022/03/23 09:16:35;;;;;;;22.48;12.40;;;;;;;10.71;48.24;101342.81;4928415;29;20581;-84
2022/03/23 09:19:02;;;;;;;24.58;13.82;;;;;;;10.69;48.24;101343.06;4926131;29;20036;-87
2022/03/23 09:21:28;;;;;;;31.10;11.63;;;;;;;10.82;48.91;101347.50;4925313;29;20095;-84
2022/03/23 09:23:53;;;;;;;20.88;11.57;;;;;;;10.86;47.74;101340.53;4925670;29;20513;-87
2022/03/23 09:26:18;;;;;;;19.13;10.93;;;;;;;10.98;46.85;101334.34;4926275;29;20474;-85
2022/03/23 09:28:44;;;;;;;23.63;13.20;;;;;;;10.98;45.81;101337.06;4925895;29;20057;-84
2022/03/23 09:31:09;;;;;;;26.70;13.02;;;;;;;11.10;46.22;101334.38;4924781;29;20278;-85
2022/03/23 09:33:34;;;;;;;23.73;13.20;;;;;;;11.29;46.35;101326.97;4924809;29;20371;-83
2022/03/23 09:36:00;;;;;;;26.20;12.77;;;;;;;11.34;48.42;101337.22;4924787;29;20265;-86
2022/03/23 09:38:26;;;;;;;21.33;12.35;;;;;;;11.37;46.56;101330.47;4925453;29;20035;-83
2022/03/23 09:40:52;;;;;;;25.25;12.15;;;;;;;11.49;46.48;101336.78;4924220;29;20032;-83
2022/03/23 09:43:22;;;;;;;22.42;11.40;;;;;;;11.36;46.73;101328.78;4924297;29;20282;-83
2022/03/23 09:45:47;;;;;;;22.20;13.40;;;;;;;11.53;46.76;101329.78;4924780;29;20035;-84
2022/03/23 09:51:37;;;;;;;25.15;12.43;;;;;;;11.68;45.83;101323.06;4919478;29;20064;-82
2022/03/23 09:54:08;;;;;;;22.52;12.70;;;;;;;11.69;45.00;101330.22;4942060;29;20055;-82
2022/03/23 09:56:34;;;;;;;23.95;12.32;;;;;;;12.00;44.27;101317.28;4944174;29;20637;-84
2022/03/23 09:59:02;;;;;;;34.60;14.45;;;;;;;12.02;44.44;101320.63;4943762;29;20042;-84
2022/03/23 10:01:27;;;;;;;20.55;11.48;;;;;;;12.01;44.12;101313.50;4930210;29;20040;-84
2022/03/23 10:04:17;;;;;;;25.17;12.57;;;;;;;12.13;43.91;101318.16;4920123;29;20106;-84
2022/03/23 10:06:57;;;;;;;25.67;12.80;;;;;;;12.31;44.25;101324.56;4927185;29;20040;-84
2022/03/23 10:09:25;;;;;;;22.38;12.43;;;;;;;12.36;43.93;101322.81;4924209;29;20031;-85
2022/03/23 10:12:35;;;;;;;21.92;11.43;;;;;;;12.32;43.06;101326.25;4923596;29;20036;-85
2022/03/23 10:15:43;;;;;;;23.27;10.90;;;;;;;12.38;41.41;101317.09;4923529;29;20561;-84
2022/03/23 10:18:17;;;;;;;23.40;12.45;;;;;;;12.55;41.97;101324.59;4923289;29;20036;-84
2022/03/23 10:20:42;;;;;;;22.75;13.15;;;;;;;12.49;42.61;101323.63;4922894;29;20056;-84
2022/03/23 10:23:08;;;;;;;26.50;12.37;;;;;;;12.78;41.54;101315.50;4922758;29;20034;-86
2022/03/23 10:25:33;;;;;;;16.90;9.27;;;;;;;12.89;41.74;101313.81;4923810;29;20769;-83
2022/03/23 10:27:58;;;;;;;17.52;9.48;;;;;;;12.91;41.80;101316.28;4905636;29;20403;-85
2022/03/23 10:30:38;;;;;;;21.63;11.45;;;;;;;12.93;41.27;101312.25;4921631;29;20063;-83
2022/03/23 10:33:14;;;;;;;18.17;11.20;;;;;;;13.03;40.28;101310.78;4920824;29;20114;-84
2022/03/23 10:35:40;;;;;;;20.42;11.25;;;;;;;13.06;40.55;101310.28;4922904;29;20024;-83
2022/03/23 10:38:23;;;;;;;22.85;12.68;;;;;;;13.14;39.62;101309.91;4924073;29;20046;-84
2022/03/23 10:40:50;;;;;;;20.60;11.48;;;;;;;13.17;37.09;101298.47;4922521;29;20035;-85
2022/03/23 10:43:21;;;;;;;19.90;11.10;;;;;;;13.50;39.07;101300.69;4923038;29;20498;-85
2022/03/23 10:45:47;;;;;;;20.20;11.60;;;;;;;13.70;38.77;101294.75;4923291;29;20119;-86
2022/03/23 10:48:18;;;;;;;24.83;13.25;;;;;;;13.64;39.78;101298.50;4924112;29;20476;-84
2022/03/23 10:50:55;;;;;;;29.45;13.63;;;;;;;13.67;38.85;101294.44;4923314;29;20076;-83
2022/03/23 10:53:37;;;;;;;23.85;12.00;;;;;;;13.79;38.04;101297.91;4923873;29;20470;-83
2022/03/23 10:56:03;;;;;;;21.85;11.75;;;;;;;13.87;38.38;101297.47;4923240;29;20027;-83
2022/03/23 10:58:29;;;;;;;15.88;10.15;;;;;;;13.86;40.08;101295.00;4922876;29;20023;-81
2022/03/23 11:01:01;;;;;;;22.02;12.77;;;;;;;13.88;38.89;101296.41;4918039;29;20040;-81
2022/03/23 11:03:48;;;;;;;20.55;10.88;;;;;;;13.98;37.35;101295.75;4941883;29;20035;-83
2022/03/23 11:18:04;;;;;;;22.63;13.05;;;;;;;14.56;35.77;101278.16;4923817;29;20050;-85
2022/03/23 11:20:51;;;;;;;25.33;11.32;;;;;;;14.63;36.72;101274.41;4922896;29;20098;-84
2022/03/23 11:23:22;;;;;;;22.48;11.27;;;;;;;14.77;36.78;101272.94;4922700;29;20479;-84
2022/03/23 11:25:53;;;;;;;18.15;11.73;;;;;;;14.64;36.79;101276.06;4923494;29;20063;-84
2022/03/23 11:28:19;;;;;;;21.88;11.10;;;;;;;14.78;37.08;101268.28;4922614;29;20035;-83
2022/03/23 11:30:46;;;;;;;22.13;10.98;;;;;;;14.68;36.06;101277.22;4923073;29;20064;-84
2022/03/23 11:33:15;;;;;;;19.85;12.25;;;;;;;14.91;36.71;101269.81;4921561;29;20035;-82
2022/03/23 11:35:45;;;;;;;23.88;11.88;;;;;;;15.10;35.84;101261.22;4941844;29;20431;-83
2022/03/23 11:38:12;;;;;;;23.00;10.77;;;;;;;15.30;32.15;101266.09;4942063;29;20094;-84
2022/03/23 11:40:40;;;;;;;20.95;12.20;;;;;;;15.55;34.15;101258.34;4918435;29;20028;-86
2022/03/23 11:43:05;;;;;;;17.80;11.30;;;;;;;15.46;34.09;101261.56;4923128;29;20154;-83
2022/03/23 11:45:31;;;;;;;24.35;14.43;;;;;;;15.60;34.01;101255.66;4922773;29;20027;-85
2022/03/23 11:48:07;;;;;;;19.60;12.38;;;;;;;15.71;32.90;101254.63;4922686;29;20023;-84
2022/03/23 11:50:45;;;;;;;27.30;14.32;;;;;;;15.59;34.86;101253.97;4922204;29;20027;-84
2022/03/23 11:53:26;;;;;;;22.63;13.52;;;;;;;15.75;34.81;101243.94;4923736;29;20036;-83
2022/03/23 11:55:53;;;;;;;24.77;11.70;;;;;;;15.43;34.14;101248.38;4926349;29;20039;-82